createdAt,value
2022-09-26T00:01:52.736Z,5.17
2022-09-26T00:04:23.712Z,4.83
2022-09-26T00:06:54.924Z,5.20
2022-09-26T00:09:24.031Z,4.43
2022-09-26T00:11:53.286Z,5.27
2022-09-26T00:14:22.716Z,5.07
2022-09-26T00:16:51.406Z,4.33
2022-09-26T00:19:20.248Z,4.20
2022-09-26T00:21:48.653Z,4.50
2022-09-26T00:24:18.454Z,3.87
2022-09-26T00:26:46.814Z,4.10
2022-09-26T00:29:16.229Z,3.70
2022-09-26T00:31:45.610Z,3.83
2022-09-26T00:34:14.710Z,3.93
2022-09-26T00:36:43.139Z,3.83
2022-09-26T00:39:13.033Z,3.73
2022-09-26T00:41:42.820Z,3.70
2022-09-26T00:44:29.689Z,3.50
2022-09-26T00:46:58.049Z,3.67
2022-09-26T00:49:28.191Z,3.30
2022-09-26T00:51:58.444Z,3.87
2022-09-26T00:54:28.166Z,3.70
2022-09-26T00:56:59.734Z,4.13
2022-09-26T00:59:31.224Z,3.80
2022-09-26T01:02:00.881Z,3.80
2022-09-26T01:04:31.919Z,3.70
2022-09-26T01:07:01.619Z,3.77
2022-09-26T01:09:30.619Z,3.97
2022-09-26T01:12:02.005Z,3.90
2022-09-26T01:14:30.523Z,3.60
2022-09-26T01:16:59.040Z,3.77
2022-09-26T01:19:30.250Z,3.90
2022-09-26T01:22:25.738Z,3.70
2022-09-26T01:25:02.080Z,3.53
2022-09-26T01:27:38.499Z,3.90
2022-09-26T01:30:13.423Z,3.50
2022-09-26T01:32:52.702Z,3.77
2022-09-26T01:35:29.975Z,3.40
2022-09-26T01:38:03.767Z,3.50
2022-09-26T01:40:33.735Z,3.10
2022-09-26T01:43:07.452Z,3.23
2022-09-26T01:45:43.174Z,2.90
2022-09-26T01:48:18.649Z,3.30
2022-09-26T01:50:50.189Z,3.50
2022-09-26T01:53:21.383Z,3.30
2022-09-26T01:55:51.734Z,3.33
2022-09-26T01:58:21.733Z,3.50
2022-09-26T02:00:52.242Z,3.30
2022-09-26T02:03:23.319Z,3.50
2022-09-26T02:05:53.478Z,3.60
2022-09-26T02:08:25.071Z,3.40
2022-09-26T02:10:54.748Z,3.53
2022-09-26T02:13:25.278Z,3.93
2022-09-26T02:15:57.401Z,3.67
2022-09-26T02:18:30.817Z,3.97
2022-09-26T02:21:02.929Z,3.30
2022-09-26T02:23:31.381Z,3.60
2022-09-26T02:26:00.098Z,3.50
2022-09-26T02:28:28.534Z,3.63
2022-09-26T02:31:00.551Z,3.60
2022-09-26T02:33:29.452Z,3.50
2022-09-26T02:35:58.419Z,3.60
2022-09-26T02:38:28.634Z,3.40
2022-09-26T02:41:00.257Z,3.60
2022-09-26T02:43:40.391Z,3.83
2022-09-26T02:46:19.785Z,3.73
2022-09-26T02:48:55.542Z,3.60
2022-09-26T02:51:32.439Z,3.20
2022-09-26T02:54:11.203Z,3.77
2022-09-26T02:56:46.118Z,4.13
2022-09-26T02:59:21.488Z,3.97
2022-09-26T03:01:54.275Z,4.20
2022-09-26T03:04:26.365Z,3.97
2022-09-26T03:06:56.517Z,4.30
2022-09-26T03:09:26.299Z,4.17
2022-09-26T03:11:55.599Z,4.53
2022-09-26T03:14:24.038Z,4.50
2022-09-26T03:16:54.291Z,4.73
2022-09-26T03:19:26.986Z,4.70
2022-09-26T03:21:55.586Z,5.17
2022-09-26T03:24:25.671Z,5.10
2022-09-26T03:26:54.610Z,5.47
2022-09-26T03:29:23.894Z,5.47
2022-09-26T03:31:53.866Z,5.70
2022-09-26T03:34:22.581Z,6.07
2022-09-26T03:36:51.033Z,6.13
2022-09-26T03:39:19.475Z,6.10
2022-09-26T03:41:47.899Z,6.67
2022-09-26T03:44:17.606Z,6.40
2022-09-26T03:46:47.186Z,6.63
2022-09-26T03:49:20.716Z,6.27
2022-09-26T03:51:49.067Z,6.80
2022-09-26T03:54:17.699Z,6.80
2022-09-26T03:56:46.051Z,6.90
2022-09-26T03:59:14.619Z,7.57
2022-09-26T04:01:43.310Z,6.60
2022-09-26T04:04:12.082Z,6.63
2022-09-26T04:06:41.881Z,7.37
2022-09-26T04:09:16.601Z,7.07
2022-09-26T04:11:45.825Z,7.40
2022-09-26T04:14:14.314Z,7.50
2022-09-26T04:16:43.220Z,8.40
2022-09-26T04:19:12.261Z,7.23
2022-09-26T04:21:42.413Z,7.77
2022-09-26T04:24:14.759Z,7.80
2022-09-26T04:26:43.731Z,8.37
2022-09-26T04:29:15.481Z,8.33
2022-09-26T04:31:44.160Z,8.03
2022-09-26T04:34:12.844Z,8.17
2022-09-26T04:36:43.731Z,7.27
2022-09-26T04:39:12.738Z,7.00
2022-09-26T04:41:41.326Z,6.93
2022-09-26T04:44:09.695Z,6.33
2022-09-26T04:46:38.238Z,6.70
2022-09-26T04:49:06.767Z,6.50
2022-09-26T04:51:35.968Z,6.23
2022-09-26T04:54:05.889Z,6.60
2022-09-26T04:56:34.369Z,6.30
2022-09-26T04:59:02.775Z,6.20
2022-09-26T05:01:31.223Z,5.43
2022-09-26T05:03:59.690Z,5.53
2022-09-26T05:06:28.096Z,6.10
2022-09-26T05:08:56.483Z,6.00
2022-09-26T05:11:26.236Z,5.83
2022-09-26T05:13:54.664Z,6.60
2022-09-26T05:16:24.073Z,6.47
2022-09-26T05:18:53.080Z,6.80
2022-09-26T05:21:21.444Z,6.77
2022-09-26T05:24:07.542Z,7.33
2022-09-26T05:26:40.975Z,7.07
2022-09-26T05:29:09.848Z,7.17
2022-09-26T05:31:39.516Z,6.77
2022-09-26T05:34:08.787Z,6.97
2022-09-26T05:36:37.138Z,6.63
2022-09-26T05:39:06.133Z,6.87
2022-09-26T05:41:33.886Z,6.50
2022-09-26T05:44:03.922Z,6.50
2022-09-26T05:46:34.321Z,6.20
2022-09-26T05:49:02.824Z,6.33
2022-09-26T05:51:31.175Z,6.93
2022-09-26T05:53:59.550Z,6.60
2022-09-26T05:56:27.914Z,6.83
2022-09-26T05:58:56.288Z,6.60
2022-09-26T06:01:26.032Z,6.47
2022-09-26T06:03:54.462Z,6.77
2022-09-26T06:06:22.935Z,6.90
2022-09-26T06:08:51.541Z,6.40
2022-09-26T06:11:25.016Z,6.03
2022-09-26T06:13:53.569Z,6.00
2022-09-26T06:16:22.985Z,5.67
2022-09-26T06:18:55.953Z,6.40
2022-09-26T06:21:24.732Z,5.83
2022-09-26T06:23:53.184Z,6.20
2022-09-26T06:26:22.622Z,5.63
2022-09-26T06:28:51.086Z,5.93
2022-09-26T06:31:22.079Z,5.80
2022-09-26T06:33:53.387Z,5.67
2022-09-26T06:36:23.921Z,5.40
2022-09-26T06:38:52.706Z,6.00
2022-09-26T06:41:21.085Z,5.77
2022-09-26T06:43:50.050Z,5.90
2022-09-26T06:46:18.496Z,5.83
2022-09-26T06:48:47.186Z,6.27
2022-09-26T06:51:15.570Z,6.43
2022-09-26T06:53:45.873Z,6.27
2022-09-26T06:56:14.773Z,5.90
2022-09-26T06:58:43.403Z,6.53
2022-09-26T07:01:12.644Z,6.40
2022-09-26T07:03:45.341Z,6.37
2022-09-26T07:06:14.533Z,6.63
2022-09-26T07:09:01.572Z,6.13
2022-09-26T07:11:50.956Z,6.93
2022-09-26T07:14:21.521Z,5.87
2022-09-26T07:16:50.788Z,6.03
2022-09-26T07:19:19.208Z,5.40
2022-09-26T07:21:47.684Z,6.60
2022-09-26T07:24:16.103Z,6.70
2022-09-26T07:26:45.832Z,6.43
2022-09-26T07:29:14.333Z,6.03
2022-09-26T07:31:42.836Z,6.00
2022-09-26T07:34:14.655Z,6.17
2022-09-26T07:36:47.594Z,6.10
2022-09-26T07:39:16.540Z,6.10
2022-09-26T07:41:46.890Z,6.70
2022-09-26T07:45:16.398Z,6.10
2022-09-26T07:47:26.523Z,6.70
2022-09-26T07:50:14.646Z,6.30
2022-09-26T07:52:44.240Z,6.17
2022-09-26T07:55:13.464Z,6.80
2022-09-26T07:57:43.189Z,6.60
2022-09-26T08:00:13.486Z,6.00
2022-09-26T08:02:42.733Z,6.10
2022-09-26T08:05:12.116Z,6.30
2022-09-26T08:07:42.229Z,6.40
2022-09-26T08:10:14.019Z,6.30
2022-09-26T08:12:43.741Z,5.60
2022-09-26T08:15:12.543Z,5.53
2022-09-26T08:17:40.911Z,6.13
2022-09-26T08:20:09.862Z,5.30
2022-09-26T08:22:38.226Z,5.30
2022-09-26T08:25:07.811Z,5.40
2022-09-26T08:27:36.484Z,5.53
2022-09-26T08:30:07.769Z,5.30
2022-09-26T08:32:37.303Z,5.20
2022-09-26T08:35:06.427Z,5.10
2022-09-26T08:37:34.789Z,5.20
2022-09-26T08:40:03.360Z,4.73
2022-09-26T08:42:35.655Z,5.00
2022-09-26T08:45:36.039Z,5.00
2022-09-26T08:48:05.618Z,4.63
2022-09-26T08:50:39.365Z,4.80
2022-09-26T08:53:11.231Z,4.37
2022-09-26T08:55:42.789Z,4.27
2022-09-26T08:58:15.317Z,4.40
2022-09-26T09:00:46.121Z,3.90
2022-09-26T09:03:20.530Z,3.97
2022-09-26T09:05:51.442Z,4.33
2022-09-26T09:08:22.546Z,4.20
2022-09-26T09:10:54.835Z,4.17
2022-09-26T09:13:27.951Z,4.50
2022-09-26T09:16:04.316Z,3.90
2022-09-26T09:18:37.339Z,4.13
2022-09-26T09:21:12.875Z,3.80
2022-09-26T09:23:51.289Z,3.87
2022-09-26T09:29:20.397Z,3.63
2022-09-26T09:31:50.715Z,3.60
2022-09-26T09:34:23.213Z,3.90
2022-09-26T09:36:52.845Z,3.80
2022-09-26T09:39:25.227Z,3.87
2022-09-26T09:41:56.610Z,3.40
2022-09-26T09:44:31.747Z,4.30
2022-09-26T09:47:02.442Z,3.73
2022-09-26T09:49:32.400Z,3.97
2022-09-26T09:52:06.711Z,3.60
2022-09-26T09:54:45.780Z,3.20
2022-09-26T09:57:21.091Z,3.53
2022-09-26T09:59:57.319Z,3.27
2022-09-26T10:02:31.287Z,3.20
2022-09-26T10:05:06.301Z,3.50
2022-09-26T10:07:34.669Z,3.20
2022-09-26T10:10:03.484Z,3.03
2022-09-26T10:12:35.074Z,3.00
2022-09-26T10:15:05.281Z,3.23
2022-09-26T10:17:35.431Z,3.40
2022-09-26T10:20:04.093Z,3.53
2022-09-26T10:22:35.996Z,3.07
2022-09-26T10:25:06.931Z,3.20
2022-09-26T10:27:36.959Z,3.23
2022-09-26T10:30:07.436Z,3.20
2022-09-26T10:32:45.749Z,3.63
2022-09-26T10:35:24.812Z,3.63
2022-09-26T10:38:00.403Z,3.87
2022-09-26T10:40:47.837Z,3.60
2022-09-26T10:43:28.772Z,3.70
2022-09-26T10:46:01.103Z,3.87
2022-09-26T10:48:38.705Z,4.20
2022-09-26T10:51:07.603Z,4.30
2022-09-26T10:53:39.914Z,3.97
2022-09-26T10:56:09.563Z,4.23
2022-09-26T10:58:41.111Z,4.20
2022-09-26T11:01:18.476Z,4.07
2022-09-26T11:03:48.746Z,3.90
2022-09-26T11:06:24.176Z,3.87
2022-09-26T11:08:55.096Z,3.80
2022-09-26T11:11:23.684Z,4.10
2022-09-26T11:14:04.944Z,4.07
2022-09-26T11:16:39.652Z,4.37
2022-09-26T11:19:12.779Z,4.07
2022-09-26T11:21:44.379Z,4.23
2022-09-26T11:24:17.529Z,3.53
2022-09-26T11:26:51.372Z,3.60
2022-09-26T11:29:23.925Z,3.50
2022-09-26T11:31:53.622Z,3.53
2022-09-26T11:34:27.472Z,3.23
2022-09-26T11:37:05.994Z,3.10
2022-09-26T11:39:41.833Z,3.40
2022-09-26T11:42:18.940Z,2.97
2022-09-26T11:44:58.591Z,2.90
2022-09-26T11:47:38.526Z,3.27
2022-09-26T11:50:23.750Z,2.83
2022-09-26T11:52:58.873Z,2.60
2022-09-26T11:55:31.168Z,2.77
2022-09-26T11:58:05.841Z,2.87
2022-09-26T12:00:39.578Z,2.83
2022-09-26T12:03:26.455Z,2.07
2022-09-26T12:06:01.749Z,2.10
2022-09-26T12:08:40.610Z,2.23
2022-09-26T12:11:16.588Z,2.33
2022-09-26T12:13:52.396Z,2.70
2022-09-26T12:16:23.985Z,2.73
2022-09-26T12:18:56.336Z,2.90
2022-09-26T12:21:32.608Z,2.50
2022-09-26T12:24:06.158Z,2.50
2022-09-26T12:26:39.847Z,2.10
2022-09-26T12:29:19.519Z,2.87
2022-09-26T12:31:53.585Z,2.70
2022-09-26T12:34:32.654Z,2.70
2022-09-26T12:37:09.304Z,2.80
2022-09-26T12:39:47.535Z,2.47
2022-09-26T12:42:26.819Z,2.97
2022-09-26T12:45:19.341Z,2.93
2022-09-26T12:47:57.050Z,2.77
2022-09-26T12:50:31.211Z,2.57
2022-09-26T12:53:13.856Z,2.70
2022-09-26T12:55:45.473Z,2.60
2022-09-26T12:58:22.046Z,2.77
2022-09-26T13:00:56.690Z,2.40
2022-09-26T13:03:35.474Z,2.40
2022-09-26T13:06:27.757Z,2.77
2022-09-26T13:09:03.764Z,2.80
2022-09-26T13:11:36.149Z,2.70
2022-09-26T13:14:27.073Z,2.53
2022-09-26T13:17:06.137Z,2.80
2022-09-26T13:19:37.756Z,2.40
2022-09-26T13:22:07.802Z,2.50
2022-09-26T13:24:42.466Z,2.30
2022-09-26T13:27:13.683Z,2.30
2022-09-26T13:29:44.734Z,2.60
2022-09-26T13:32:17.425Z,2.50
2022-09-26T13:34:50.717Z,2.60
2022-09-26T13:37:29.220Z,2.50
2022-09-26T13:40:03.202Z,2.57
2022-09-26T13:42:36.394Z,2.23
2022-09-26T13:45:09.719Z,2.53
2022-09-26T13:47:43.064Z,2.40
2022-09-26T13:50:18.412Z,2.50
2022-09-26T13:52:52.863Z,2.30
2022-09-26T13:55:23.487Z,2.33
2022-09-26T13:58:04.251Z,2.07
2022-09-26T14:00:49.236Z,2.10
2022-09-26T14:03:47.976Z,2.00
2022-09-26T14:06:32.105Z,2.20
2022-09-26T14:09:23.867Z,1.70
2022-09-26T14:11:55.245Z,1.80
2022-09-26T14:14:26.323Z,2.07
2022-09-26T14:16:55.609Z,1.70
2022-09-26T14:19:30.627Z,1.70
2022-09-26T14:22:00.709Z,1.80
2022-09-26T14:24:34.046Z,1.70
2022-09-26T14:27:15.205Z,1.77
2022-09-26T14:29:45.637Z,1.87
2022-09-26T14:32:17.983Z,1.57
2022-09-26T14:34:47.172Z,1.57
2022-09-26T14:37:26.487Z,1.80
2022-09-26T14:40:02.376Z,1.67
2022-09-26T14:42:33.821Z,1.37
2022-09-26T14:45:03.637Z,1.60
2022-09-26T14:47:40.397Z,1.50
2022-09-26T14:50:16.193Z,1.80
2022-09-26T14:52:52.051Z,1.57
2022-09-26T14:55:20.961Z,1.50
2022-09-26T14:57:50.786Z,1.50
2022-09-26T15:00:37.284Z,1.40
2022-09-26T15:03:07.818Z,1.60
2022-09-26T15:05:36.523Z,1.80
2022-09-26T15:08:05.252Z,1.73
2022-09-26T15:10:40.318Z,1.70
2022-09-26T15:13:25.041Z,1.70
2022-09-26T15:15:58.965Z,1.70
2022-09-26T15:18:34.756Z,1.70
2022-09-26T15:21:07.843Z,2.10
2022-09-26T15:23:46.189Z,2.07
2022-09-26T15:26:15.619Z,1.63
2022-09-26T15:28:48.860Z,1.97
2022-09-26T15:31:21.837Z,1.80
2022-09-26T15:33:56.186Z,1.63
2022-09-26T15:36:24.697Z,1.70
2022-09-26T15:38:53.181Z,1.90
2022-09-26T15:41:35.857Z,2.00
2022-09-26T15:44:07.750Z,1.77
2022-09-26T15:46:36.458Z,1.90
2022-09-26T15:49:14.346Z,2.13
2022-09-26T15:51:45.287Z,2.10
2022-09-26T15:54:21.748Z,2.17
2022-09-26T15:56:51.150Z,1.90
2022-09-26T15:59:22.899Z,2.00
2022-09-26T16:01:52.482Z,2.20
2022-09-26T16:04:22.192Z,2.00
2022-09-26T16:06:54.811Z,2.37
2022-09-26T16:09:24.952Z,2.30
2022-09-26T16:11:55.505Z,2.40
2022-09-26T16:14:28.017Z,1.97
2022-09-26T16:17:00.215Z,1.97
2022-09-26T16:19:34.208Z,2.00
2022-09-26T16:22:17.589Z,2.20
2022-09-26T16:24:46.013Z,2.20
2022-09-26T16:27:23.876Z,1.93
2022-09-26T16:29:54.152Z,1.97
2022-09-26T16:32:24.678Z,2.03
2022-09-26T16:34:53.082Z,2.40
2022-09-26T16:37:23.135Z,2.43
2022-09-26T16:39:56.357Z,2.20
2022-09-26T16:42:26.917Z,2.10
2022-09-26T16:44:57.565Z,2.07
2022-09-26T16:47:34.191Z,2.00
2022-09-26T16:50:17.542Z,2.00
2022-09-26T16:52:47.655Z,2.07
2022-09-26T16:55:16.412Z,2.10
2022-09-26T16:57:50.844Z,1.90
2022-09-26T17:00:39.415Z,1.90
2022-09-26T17:03:23.282Z,2.03
2022-09-26T17:05:52.434Z,1.90
2022-09-26T17:08:22.012Z,1.63
2022-09-26T17:10:50.997Z,1.90
2022-09-26T17:13:21.695Z,1.90
2022-09-26T17:15:53.072Z,1.70
2022-09-26T17:18:22.407Z,1.73
2022-09-26T17:20:51.192Z,1.90
2022-09-26T17:23:39.398Z,1.63
2022-09-26T17:26:08.233Z,1.83
2022-09-26T17:28:38.662Z,2.00
2022-09-26T17:31:09.715Z,1.93
2022-09-26T17:33:40.684Z,1.67
2022-09-26T17:36:11.033Z,1.70
2022-09-26T17:38:44.145Z,2.10
2022-09-26T17:41:13.358Z,2.27
2022-09-26T17:43:41.822Z,2.20
2022-09-26T17:46:15.894Z,2.20
2022-09-26T17:48:45.556Z,1.93
2022-09-26T17:51:14.630Z,2.00
2022-09-26T17:53:50.014Z,2.10
2022-09-26T17:56:20.685Z,2.00
2022-09-26T17:58:49.478Z,2.00
2022-09-26T18:01:22.496Z,2.10
2022-09-26T18:03:51.981Z,2.10
2022-09-26T18:06:21.952Z,2.10
2022-09-26T18:08:51.533Z,2.23
2022-09-26T18:11:20.579Z,2.20
2022-09-26T18:13:52.584Z,2.30
2022-09-26T18:16:22.815Z,2.30
2022-09-26T18:18:51.414Z,2.03
2022-09-26T18:21:20.460Z,2.30
2022-09-26T18:23:50.055Z,2.50
2022-09-26T18:26:23.250Z,2.07
2022-09-26T18:28:51.761Z,2.10
2022-09-26T18:31:23.856Z,2.33
2022-09-26T18:33:52.299Z,2.37
2022-09-26T18:36:20.723Z,2.03
2022-09-26T18:38:49.657Z,2.57
2022-09-26T18:41:19.125Z,2.20
2022-09-26T18:43:52.275Z,2.17
2022-09-26T18:46:22.997Z,2.17
2022-09-26T18:48:51.904Z,2.27
2022-09-26T18:51:20.589Z,1.93
2022-09-26T18:53:48.925Z,2.40
2022-09-26T18:56:35.099Z,2.50
2022-09-26T18:59:04.151Z,2.33
2022-09-26T19:01:35.224Z,2.10
2022-09-26T19:04:05.908Z,2.30
2022-09-26T19:06:36.713Z,2.50
2022-09-26T19:09:06.415Z,2.50
2022-09-26T19:11:37.913Z,2.30
2022-09-26T19:14:11.831Z,2.30
2022-09-26T19:16:41.607Z,2.60
2022-09-26T19:19:10.007Z,2.20
2022-09-26T19:21:39.270Z,2.03
2022-09-26T19:24:10.546Z,2.40
2022-09-26T19:26:40.872Z,2.27
2022-09-26T19:29:12.322Z,2.67
2022-09-26T19:31:42.308Z,2.80
2022-09-26T19:34:15.026Z,2.33
2022-09-26T19:36:45.097Z,2.60
2022-09-26T19:39:14.852Z,2.60
2022-09-26T19:41:43.651Z,2.50
2022-09-26T19:44:12.902Z,2.40
2022-09-26T19:46:43.124Z,2.50
2022-09-26T19:49:16.305Z,2.63
2022-09-26T19:51:44.834Z,2.47
2022-09-26T19:54:16.655Z,2.80
2022-09-26T19:56:45.744Z,2.57
2022-09-26T19:59:14.139Z,2.40
2022-09-26T20:01:46.113Z,2.60
2022-09-26T20:04:15.401Z,2.50
2022-09-26T20:06:44.495Z,2.73
2022-09-26T20:09:15.802Z,2.60
2022-09-26T20:11:44.248Z,2.40
2022-09-26T20:14:24.870Z,2.60
2022-09-26T20:16:55.765Z,2.50
2022-09-26T20:19:29.472Z,2.87
2022-09-26T20:21:59.948Z,2.60
2022-09-26T20:24:28.495Z,2.67
2022-09-26T20:26:57.059Z,2.70
2022-09-26T20:29:25.489Z,2.60
2022-09-26T20:31:54.310Z,2.53
2022-09-26T20:34:22.662Z,2.80
2022-09-26T20:36:52.490Z,2.80
2022-09-26T20:39:22.440Z,2.67
2022-09-26T20:41:51.176Z,2.53
2022-09-26T20:44:20.730Z,2.70
2022-09-26T20:46:50.491Z,2.60
2022-09-26T20:49:22.765Z,2.70
2022-09-26T20:51:51.536Z,2.30
2022-09-26T20:54:26.100Z,2.43
2022-09-26T20:56:54.853Z,2.40
2022-09-26T20:59:23.710Z,2.30
2022-09-26T21:01:52.755Z,2.40
2022-09-26T21:04:26.235Z,2.87
2022-09-26T21:06:54.658Z,2.33
2022-09-26T21:09:23.001Z,2.50
2022-09-26T21:11:51.674Z,2.50
2022-09-26T21:14:20.341Z,2.40
2022-09-26T21:16:51.729Z,2.63
2022-09-26T21:19:21.463Z,2.27
2022-09-26T21:21:51.551Z,2.37
2022-09-26T21:24:24.929Z,2.60
2022-09-26T21:26:53.719Z,3.20
2022-09-26T21:29:22.089Z,2.67
2022-09-26T21:31:51.889Z,2.57
2022-09-26T21:34:22.061Z,2.80
2022-09-26T21:36:52.528Z,2.60
2022-09-26T21:39:21.591Z,2.60
2022-09-26T21:41:51.253Z,2.60
2022-09-26T21:44:21.845Z,3.00
2022-09-26T21:46:50.287Z,2.73
2022-09-26T21:49:18.684Z,2.70
2022-09-26T21:51:49.669Z,3.07
2022-09-26T21:54:21.048Z,3.23
2022-09-26T21:56:50.942Z,2.70
2022-09-26T21:59:20.725Z,3.03
2022-09-26T22:01:49.296Z,2.70
2022-09-26T22:04:18.998Z,2.90
2022-09-26T22:06:47.395Z,2.67
2022-09-26T22:09:16.149Z,2.83
2022-09-26T22:11:45.986Z,3.00
2022-09-26T22:14:14.426Z,2.83
2022-09-26T22:16:42.996Z,2.70
2022-09-26T22:19:11.494Z,2.53
2022-09-26T22:21:39.898Z,2.70
2022-09-26T22:24:08.329Z,2.40
2022-09-26T22:26:36.729Z,2.67
2022-09-26T22:29:06.482Z,2.67
2022-09-26T22:31:34.882Z,2.50
2022-09-26T22:34:03.232Z,2.60
2022-09-26T22:36:32.721Z,2.73
2022-09-26T22:39:01.168Z,2.70
2022-09-26T22:41:29.578Z,2.37
2022-09-26T22:43:58.003Z,2.37
2022-09-26T22:46:27.931Z,2.50
2022-09-26T22:48:56.551Z,2.43
2022-09-26T22:51:24.955Z,2.57
2022-09-26T22:53:53.586Z,2.57
2022-09-26T22:56:22.062Z,2.60
2022-09-26T22:58:51.474Z,2.60
2022-09-26T23:01:22.476Z,2.50
2022-09-26T23:03:53.101Z,2.87
2022-09-26T23:06:21.937Z,2.77
2022-09-26T23:08:53.542Z,2.90
2022-09-26T23:11:22.518Z,3.10
2022-09-26T23:13:52.126Z,2.87
2022-09-26T23:16:21.892Z,2.90
2022-09-26T23:18:52.489Z,2.87
2022-09-26T23:21:21.601Z,3.23
2022-09-26T23:23:50.966Z,3.20
2022-09-26T23:26:22.318Z,3.47
2022-09-26T23:28:50.928Z,3.67
2022-09-26T23:31:19.564Z,3.90
2022-09-26T23:33:48.343Z,4.07
2022-09-26T23:36:18.159Z,4.40
2022-09-26T23:38:46.583Z,4.80
2022-09-26T23:41:15.311Z,5.00
2022-09-26T23:43:44.000Z,5.30
2022-09-26T23:46:12.761Z,5.47
2022-09-26T23:48:41.435Z,5.97
2022-09-26T23:51:10.019Z,7.13
2022-09-26T23:53:39.834Z,7.27
2022-09-26T23:56:09.062Z,8.10
2022-09-26T23:58:38.201Z,8.03
